Time;durP1;ratioP1;P1;durP2;ratioP2;P2;SDS_P1;SDS_P2;PMS_P1;PMS_P2;Temp;Humidity;BMP_temperature;BMP_pressure;BME280_temperature;BME280_humidity;BME280_pressure;Samples;Min_cycle;Max_cycle;Signal;HPM_P1;HPM_P2
2022/12/28 00:01:16;;;;;;;;;0.00;0.00;;;;;1.42;82.45;99394.66;4924417;28;101708;-78
2022/12/28 00:03:44;;;;;;;;;0.00;0.00;;;;;1.40;82.97;99393.91;4930703;28;101659;-78
2022/12/28 00:06:12;;;;;;;;;0.75;0.00;;;;;1.35;82.77;99386.28;4919097;28;103338;-76
2022/12/28 00:08:40;;;;;;;;;0.00;0.00;;;;;1.36;83.24;99381.81;4927991;28;101862;-77
2022/12/28 00:11:13;;;;;;;;;0.00;0.00;;;;;1.36;83.28;99384.47;4927044;28;101741;-75
2022/12/28 00:13:55;;;;;;;;;0.00;0.00;;;;;1.30;83.45;99369.84;4916143;28;101962;-76
2022/12/28 00:16:26;;;;;;;;;0.50;0.00;;;;;1.38;83.56;99379.88;4914623;28;103615;-76
2022/12/28 00:18:56;;;;;;;;;0.00;0.00;;;;;1.38;82.91;99379.88;4914702;28;101602;-76
2022/12/28 00:21:23;;;;;;;;;1.00;0.00;;;;;1.39;83.02;99367.41;4923613;28;101816;-76
2022/12/28 00:23:52;;;;;;;;;0.75;0.00;;;;;1.43;82.85;99380.34;4915920;28;101750;-76
2022/12/28 00:26:23;;;;;;;;;0.00;0.00;;;;;1.43;83.23;99379.50;4912265;28;103594;-77
2022/12/28 00:28:50;;;;;;;;;0.00;0.00;;;;;1.47;83.29;99380.94;4928730;28;101704;-77
2022/12/28 00:31:17;;;;;;;;;0.00;0.00;;;;;1.50;83.23;99376.22;4931689;28;101469;-77
2022/12/28 00:33:45;;;;;;;;;0.00;0.00;;;;;1.51;83.12;99366.41;4927227;28;101932;-77
2022/12/28 00:36:13;;;;;;;;;0.00;0.00;;;;;1.56;82.69;99383.72;4919555;28;103370;-77
2022/12/28 00:38:41;;;;;;;;;0.00;0.00;;;;;1.58;83.28;99379.09;4915973;28;102557;-76
2022/12/28 00:41:09;;;;;;;;;0.00;0.00;;;;;1.61;82.60;99384.19;4926332;28;101415;-78
2022/12/28 00:43:36;;;;;;;;;0.00;0.00;;;;;1.61;82.19;99376.19;4924871;28;101591;-76
2022/12/28 00:46:04;;;;;;;;;0.00;0.00;;;;;1.64;82.76;99385.75;4921505;28;103357;-79
2022/12/28 00:48:31;;;;;;;;;0.00;0.00;;;;;1.66;81.78;99382.00;4932189;28;101716;-78
2022/12/28 00:51:12;;;;;;;;;0.00;0.00;;;;;1.65;83.03;99380.31;4921418;28;102002;-80
2022/12/28 00:53:40;;;;;;;;;0.00;0.00;;;;;1.67;82.75;99382.81;4912779;28;102424;-77
2022/12/28 00:56:13;;;;;;;;;0.00;0.00;;;;;1.71;82.51;99386.94;4927075;28;103410;-78
2022/12/28 00:58:41;;;;;;;;;0.00;0.00;;;;;1.71;82.66;99385.09;4929595;28;101829;-78
2022/12/28 01:01:17;;;;;;;;;0.00;0.00;;;;;1.71;82.63;99385.09;4912432;28;102790;-78
2022/12/28 01:03:45;;;;;;;;;0.00;0.00;;;;;1.69;81.86;99388.88;4931255;28;101658;-77
2022/12/28 01:06:15;;;;;;;;;0.00;0.00;;;;;1.66;82.19;99394.47;4931916;28;103346;-78
2022/12/28 01:08:43;;;;;;;;;0.00;0.00;;;;;1.61;81.91;99384.19;4926242;28;101713;-78
2022/12/28 01:11:17;;;;;;;;;0.00;0.00;;;;;1.56;81.11;99386.38;4930617;28;101637;-78
2022/12/28 01:13:44;;;;;;;;;0.00;0.00;;;;;1.47;82.66;99387.13;4932285;28;102129;-78
2022/12/28 01:16:34;;;;;;;;;0.00;0.00;;;;;1.41;82.28;99382.28;4918755;28;103496;-78
2022/12/28 01:19:04;;;;;;;;;0.00;0.00;;;;;1.17;82.67;99369.13;4923616;28;101907;-79
2022/12/28 01:21:33;;;;;;;;;0.00;0.00;;;;;1.22;82.29;99390.06;4932170;28;102223;-78
2022/12/28 01:24:03;;;;;;;;;0.00;0.00;;;;;1.14;83.86;99389.84;4907651;28;101580;-77
2022/12/28 01:26:30;;;;;;;;;0.00;0.00;;;;;1.07;84.08;99384.16;4927063;28;102300;-77
2022/12/28 01:28:57;;;;;;;;;0.00;0.00;;;;;1.02;83.93;99386.34;4931066;28;101678;-77
2022/12/28 01:31:25;;;;;;;;;0.00;0.00;;;;;0.93;84.41;99384.41;4914872;28;101848;-77
2022/12/28 01:33:52;;;;;;;;;0.00;0.00;;;;;0.87;84.21;99385.72;4920725;28;101908;-78
2022/12/28 01:36:24;;;;;;;;;0.00;0.00;;;;;0.85;84.88;99381.50;4926441;28;103382;-78
2022/12/28 01:38:54;;;;;;;;;0.00;0.00;;;;;0.79;84.99;99385.50;4922226;28;101909;-78
2022/12/28 01:41:22;;;;;;;;;0.75;0.00;;;;;0.75;84.87;99383.19;4912463;28;101850;-79
2022/12/28 01:43:52;;;;;;;;;1.00;0.00;;;;;0.71;86.09;99385.25;4929554;28;101994;-79
2022/12/28 01:46:48;;;;;;;;;0.00;0.00;;;;;0.69;86.51;99376.53;4918228;28;103622;-77
2022/12/28 01:49:21;;;;;;;;;0.00;0.00;;;;;0.66;86.85;99378.59;4911412;28;101836;-78
2022/12/28 01:52:05;;;;;;;;;0.00;0.00;;;;;0.60;86.13;99363.94;4920730;28;101905;-78
2022/12/28 01:54:39;;;;;;;;;1.00;0.00;;;;;0.61;86.69;99370.97;4913328;28;101637;-79
2022/12/28 01:57:06;;;;;;;;;0.00;0.00;;;;;0.24;86.74;99316.25;4931142;28;108429;-79
2022/12/28 01:59:39;;;;;;;;;1.00;1.00;;;;;0.56;87.32;99367.81;4920560;28;101614;-78
2022/12/28 02:02:07;;;;;;;;;0.00;0.00;;;;;0.53;86.81;99360.09;4928467;28;101571;-77
2022/12/28 02:04:35;;;;;;;;;0.00;0.00;;;;;0.45;87.06;99344.69;4928633;28;101828;-77
2022/12/28 02:07:02;;;;;;;;;0.00;0.00;;;;;0.48;87.22;99353.41;4925586;28;103279;-78
2022/12/28 02:09:53;;;;;;;;;0.00;0.00;;;;;0.54;86.77;99348.44;4910031;28;105575;-78
2022/12/28 02:13:00;;;;;;;;;0.00;0.00;;;;;0.42;87.45;99323.66;4904579;28;101574;-79
2022/12/28 02:15:48;;;;;;;;;0.75;0.00;;;;;0.54;88.04;99348.44;4923873;28;102698;-78
2022/12/28 02:18:34;;;;;;;;;0.00;0.00;;;;;0.50;86.91;99339.00;4914632;28;107515;-78
2022/12/28 02:21:32;;;;;;;;;0.00;0.00;;;;;0.53;86.78;99338.78;4919771;28;101829;-78
2022/12/28 02:24:24;;;;;;;;;0.50;0.00;;;;;0.54;87.21;99345.78;4894364;28;105869;-78
2022/12/28 02:27:53;;;;;;;;;0.00;0.00;;;;;0.52;87.41;99345.06;4921243;28;101792;-78
2022/12/28 02:30:33;;;;;;;;;1.00;0.00;;;;;0.50;87.40;99328.38;4902808;28;108332;-78
2022/12/28 02:33:43;;;;;;;;;0.00;0.00;;;;;0.50;87.41;99320.38;4914527;28;101836;-78
2022/12/28 02:36:20;;;;;;;;;0.00;0.00;;;;;0.50;87.37;99309.75;4838946;28;101898;-77
2022/12/28 02:38:58;;;;;;;;;0.00;0.00;;;;;0.41;87.01;99294.50;4843596;28;101748;-77
2022/12/28 02:41:25;;;;;;;;;0.00;0.00;;;;;0.49;87.08;99304.56;4900698;28;103395;-78
2022/12/28 02:43:53;;;;;;;;;0.75;0.00;;;;;0.47;87.17;99303.81;4924874;28;101737;-78
2022/12/28 02:52:08;;;;;;;;;0.00;0.00;;;;;0.50;87.22;99303.56;4925491;28;107781;-78
2022/12/28 02:58:10;;;;;;;;;1.00;0.50;;;;;0.51;86.84;99291.97;4917225;28;101873;-78
2022/12/28 03:00:45;;;;;;;;;0.00;0.00;;;;;0.50;86.29;99293.78;4923782;28;103068;-78
2022/12/28 03:03:25;;;;;;;;;0.00;0.00;;;;;0.50;86.48;99285.81;4928821;28;107751;-77
2022/12/28 03:09:14;;;;;;;;;0.00;0.00;;;;;0.52;85.49;99272.41;4918440;28;101643;-78
2022/12/28 03:12:04;;;;;;;;;0.00;0.00;;;;;0.52;85.97;99285.69;4906520;28;101557;-77
2022/12/28 03:14:42;;;;;;;;;0.00;0.00;;;;;0.51;85.87;99279.53;4919020;28;103370;-78
2022/12/28 03:31:31;;;;;;;;;1.00;0.25;;;;;0.29;86.16;99301.66;4919939;28;101635;-78
2022/12/28 03:34:05;;;;;;;;;0.00;0.00;;;;;0.28;86.36;99302.59;4923320;28;101559;-79
2022/12/28 03:36:44;;;;;;;;;0.00;0.00;;;;;0.25;86.58;99297.53;4923747;28;103802;-79
2022/12/28 03:39:43;;;;;;;;;0.25;0.00;;;;;0.21;86.75;99292.56;4908623;28;101621;-77
2022/12/28 03:45:09;;;;;;;;;0.00;0.00;;;;;0.13;86.49;99279.88;4918387;28;102016;-78
2022/12/28 03:47:40;;;;;;;;;0.00;0.00;;;;;0.07;86.94;99275.03;4919123;28;107956;-78
2022/12/28 03:50:08;;;;;;;;;0.00;0.00;;;;;0.05;87.06;99262.81;4928298;28;101964;-78
2022/12/28 03:52:34;;;;;;;;;0.00;0.00;;;;;0.02;86.91;99271.03;4928278;28;101573;-78
2022/12/28 03:55:02;;;;;;;;;0.00;0.00;;;;;0.00;87.24;99273.81;4909470;28;102353;-78
2022/12/28 03:57:29;;;;;;;;;0.00;0.00;;;;;-0.05;86.99;99260.88;4924853;28;103276;-78
2022/12/28 03:59:56;;;;;;;;;0.00;0.00;;;;;-0.01;87.65;99270.31;4925746;28;101814;-78
2022/12/28 04:02:23;;;;;;;;;1.00;0.00;;;;;-0.01;87.76;99258.84;4926327;28;101416;-78
2022/12/28 04:04:50;;;;;;;;;0.00;0.00;;;;;-0.02;87.16;99260.66;4930209;28;101916;-78
2022/12/28 04:07:17;;;;;;;;;0.00;0.00;;;;;-0.09;87.71;99248.78;4923653;28;103565;-77
2022/12/28 04:09:44;;;;;;;;;0.00;0.00;;;;;0.00;86.89;99257.88;4924723;28;101938;-78
2022/12/28 04:12:13;;;;;;;;;0.00;0.00;;;;;-0.02;87.43;99250.00;4923224;28;101515;-77
2022/12/28 04:14:40;;;;;;;;;0.50;0.00;;;;;0.00;87.45;99249.91;4928264;28;106966;-76
2022/12/28 04:17:07;;;;;;;;;0.00;0.00;;;;;-0.01;86.80;99246.41;4914419;28;108020;-76
2022/12/28 04:19:34;;;;;;;;;1.00;0.00;;;;;-0.01;87.06;99246.41;4913752;28;101784;-78
2022/12/28 04:22:01;;;;;;;;;0.00;0.00;;;;;0.00;86.96;99249.91;4928228;28;101515;-78
2022/12/28 04:24:27;;;;;;;;;0.00;0.00;;;;;-0.01;86.54;99249.06;4910048;28;101695;-78
2022/12/28 04:26:55;;;;;;;;;0.00;0.00;;;;;-0.02;86.76;99244.69;4926150;28;103522;-78
2022/12/28 04:29:21;;;;;;;;;0.00;0.00;;;;;-0.08;86.55;99229.22;4925747;28;101734;-76
2022/12/28 04:31:48;;;;;;;;;0.00;0.00;;;;;-0.07;86.59;99219.44;4921315;28;101683;-76
2022/12/28 04:34:15;;;;;;;;;0.00;0.00;;;;;-0.12;86.24;99227.75;4914618;28;101784;-76
2022/12/28 04:36:42;;;;;;;;;0.00;0.00;;;;;-0.15;86.80;99230.66;4924715;28;103323;-76
2022/12/28 04:39:09;;;;;;;;;0.00;0.00;;;;;-0.19;87.04;99231.03;4915895;28;101942;-77
2022/12/28 04:41:36;;;;;;;;;0.00;0.00;;;;;-0.22;86.38;99229.41;4914552;28;102469;-77
2022/12/28 04:44:03;;;;;;;;;0.00;0.00;;;;;-0.26;86.61;99235.94;4927673;28;101703;-77
2022/12/28 04:46:31;;;;;;;;;0.00;0.00;;;;;-0.27;87.35;99222.78;4929912;28;103810;-76
2022/12/28 04:48:59;;;;;;;;;0.00;0.00;;;;;-0.31;86.95;99214.19;4927309;28;101680;-77
2022/12/28 04:51:28;;;;;;;;;0.00;0.00;;;;;-0.33;87.60;99215.28;4920415;28;101607;-76
2022/12/28 04:53:56;;;;;;;;;0.00;0.00;;;;;-0.41;87.08;99199.94;4919252;28;101706;-76
2022/12/28 04:56:25;;;;;;;;;0.00;0.00;;;;;-0.39;86.95;99213.94;4922164;28;103350;-77
2022/12/28 04:58:54;;;;;;;;;0.00;0.00;;;;;-0.40;88.05;99217.56;4929364;28;101610;-76
2022/12/28 05:01:21;;;;;;;;;0.00;0.00;;;;;-0.45;87.76;99212.59;4929569;28;101827;-76
2022/12/28 05:03:49;;;;;;;;;0.00;0.00;;;;;-0.43;87.63;99223.09;4921383;28;101954;-76
2022/12/28 05:06:23;;;;;;;;;0.00;0.00;;;;;-0.45;87.53;99215.25;4931355;28;103381;-77
2022/12/28 05:08:50;;;;;;;;;0.00;0.00;;;;;-0.48;87.71;99211.97;4914987;28;101838;-77
2022/12/28 05:11:22;;;;;;;;;0.00;0.00;;;;;-0.50;88.37;99201.50;4929317;28;101594;-77
2022/12/28 05:13:49;;;;;;;;;0.00;0.00;;;;;-0.50;87.87;99198.84;4932125;28;101899;-77
2022/12/28 05:16:22;;;;;;;;;0.00;0.00;;;;;-0.53;87.69;99198.19;4898818;28;103221;-77
2022/12/28 05:18:49;;;;;;;;;0.25;0.00;;;;;-0.48;87.86;99204.00;4917836;28;101852;-77
2022/12/28 05:21:20;;;;;;;;;0.00;0.00;;;;;-0.61;88.23;99166.94;4930409;28;101923;-77
2022/12/28 05:23:48;;;;;;;;;0.00;0.00;;;;;-0.53;88.07;99196.41;4922810;28;101945;-77
2022/12/28 05:26:20;;;;;;;;;0.00;0.00;;;;;-0.55;87.66;99197.50;4929031;28;103350;-77
2022/12/28 05:28:48;;;;;;;;;0.00;0.00;;;;;-0.55;88.09;99192.19;4932090;28;101929;-77
2022/12/28 05:31:20;;;;;;;;;0.00;0.00;;;;;-0.55;87.48;99192.19;4930756;28;101907;-77
2022/12/28 05:33:48;;;;;;;;;0.00;0.00;;;;;-0.58;87.38;99181.78;4930958;28;101806;-77
2022/12/28 05:36:18;;;;;;;;;0.00;0.00;;;;;-0.58;88.32;99192.38;4919811;28;104822;-77
2022/12/28 05:38:45;;;;;;;;;0.50;0.00;;;;;-0.60;88.52;99183.72;4908881;28;101960;-77
2022/12/28 05:41:16;;;;;;;;;0.00;0.00;;;;;-0.60;88.45;99179.25;4923156;28;101776;-76
2022/12/28 05:43:43;;;;;;;;;0.00;0.00;;;;;-0.60;87.68;99178.41;4918748;28;101981;-76
2022/12/28 05:46:13;;;;;;;;;0.00;0.00;;;;;-0.60;87.74;99183.72;4933608;28;103460;-77
2022/12/28 05:48:41;;;;;;;;;0.00;0.00;;;;;-0.60;87.67;99175.75;4896016;28;101688;-77
2022/12/28 05:51:11;;;;;;;;;0.00;0.00;;;;;-0.63;88.31;99173.34;4925885;28;101688;-76
2022/12/28 05:53:39;;;;;;;;;0.00;0.00;;;;;-0.65;88.32;99178.75;4902275;28;101696;-77
2022/12/28 05:56:09;;;;;;;;;0.00;0.00;;;;;-0.65;88.35;99176.09;4926759;28;107918;-77
2022/12/28 05:58:41;;;;;;;;;0.00;0.00;;;;;-0.69;87.98;99173.78;4931541;28;101729;-77
2022/12/28 06:01:13;;;;;;;;;0.00;0.00;;;;;-0.61;88.54;99182.00;4930103;28;101880;-77
2022/12/28 06:03:41;;;;;;;;;0.00;0.00;;;;;-0.62;87.14;99173.19;4928545;28;102084;-77
2022/12/28 06:06:14;;;;;;;;;0.00;0.00;;;;;-0.59;86.75;99169.47;4926542;28;107779;-77
2022/12/28 06:08:42;;;;;;;;;0.00;0.00;;;;;-0.59;87.81;99165.03;4917429;28;101896;-76
2022/12/28 06:11:12;;;;;;;;;0.00;0.00;;;;;-0.61;87.68;99166.06;4920139;28;101917;-77
2022/12/28 06:13:40;;;;;;;;;0.00;0.00;;;;;-0.61;87.71;99160.78;4926007;28;101689;-77
2022/12/28 06:16:13;;;;;;;;;0.00;0.00;;;;;-0.99;87.56;99087.53;4920800;28;107704;-77
2022/12/28 06:18:41;;;;;;;;;0.00;0.00;;;;;-0.58;86.83;99157.88;4932218;28;101693;-77
2022/12/28 06:21:21;;;;;;;;;0.00;0.00;;;;;-0.58;87.51;99157.88;4929968;28;101867;-77
2022/12/28 06:23:49;;;;;;;;;0.00;0.00;;;;;-0.58;86.89;99152.56;4932329;28;101878;-77
2022/12/28 06:26:18;;;;;;;;;0.00;0.00;;;;;-0.57;86.86;99154.25;4928993;28;103344;-77
2022/12/28 06:28:47;;;;;;;;;0.00;0.00;;;;;-0.57;87.30;99152.44;4929944;28;101809;-76
2022/12/28 06:31:20;;;;;;;;;1.75;0.00;;;;;-0.60;86.24;99158.00;4926740;28;101487;-76
2022/12/28 06:33:48;;;;;;;;;1.00;1.00;;;;;-0.59;86.92;99142.91;4916398;28;101875;-77
2022/12/28 06:36:20;;;;;;;;;1.00;1.00;;;;;-0.59;87.41;99157.06;4911039;28;103412;-77
2022/12/28 06:38:49;;;;;;;;;0.50;0.50;;;;;-0.58;86.68;99150.75;4915767;28;101850;-77
2022/12/28 06:41:18;;;;;;;;;1.00;1.00;;;;;-0.57;87.60;99143.63;4918206;28;104587;-79
2022/12/28 06:43:45;;;;;;;;;1.25;1.00;;;;;-0.58;87.18;99141.94;4930408;28;101632;-77
2022/12/28 06:46:14;;;;;;;;;1.00;0.00;;;;;-0.56;86.81;99140.03;4906775;28;103502;-76
2022/12/28 06:48:42;;;;;;;;;0.00;0.00;;;;;-0.64;86.90;99129.16;4929825;28;101974;-77
2022/12/28 06:51:16;;;;;;;;;0.00;0.00;;;;;-0.52;86.41;99141.47;4930363;28;102168;-77
2022/12/28 06:53:44;;;;;;;;;1.00;0.25;;;;;-0.57;86.70;99117.06;4927697;28;101878;-76
2022/12/28 06:56:14;;;;;;;;;1.75;0.75;;;;;-0.48;85.87;99140.28;4932597;28;103517;-76
2022/12/28 06:58:41;;;;;;;;;0.00;0.00;;;;;-0.46;85.80;99139.19;4918662;28;101525;-77
2022/12/28 07:01:12;;;;;;;;;0.00;0.00;;;;;-0.42;86.38;99137.16;4922744;28;101685;-79
2022/12/28 07:03:41;;;;;;;;;0.00;0.00;;;;;-0.46;85.60;99131.22;4928647;28;101668;-77
2022/12/28 07:06:08;;;;;;;;;0.00;0.00;;;;;-0.35;86.02;99143.66;4929149;28;107913;-79
2022/12/28 07:08:36;;;;;;;;;0.00;0.00;;;;;-0.32;86.01;99130.16;4915726;28;101627;-77
2022/12/28 07:11:10;;;;;;;;;0.25;0.00;;;;;-0.28;85.52;99128.94;4930159;28;101762;-77
2022/12/28 07:13:37;;;;;;;;;0.50;0.50;;;;;-0.25;85.25;99135.81;4929121;28;101835;-78
2022/12/28 07:16:11;;;;;;;;;0.00;0.00;;;;;-0.48;85.22;99087.16;4912389;28;103438;-77
2022/12/28 07:18:39;;;;;;;;;0.00;0.00;;;;;-0.17;84.98;99128.94;4914945;28;101607;-77
2022/12/28 07:21:11;;;;;;;;;0.00;0.00;;;;;-0.09;84.87;99131.00;4929766;28;109456;-77
2022/12/28 07:23:38;;;;;;;;;0.75;0.75;;;;;-0.03;84.60;99136.66;4916018;28;101775;-77
2022/12/28 07:26:13;;;;;;;;;0.00;0.00;;;;;0.04;84.74;99128.22;4927916;28;103611;-77
2022/12/28 07:28:43;;;;;;;;;1.00;0.75;;;;;0.10;84.40;99133.03;4925795;28;101695;-77
2022/12/28 07:31:13;;;;;;;;;1.00;0.00;;;;;0.08;84.18;99117.22;4917522;28;101805;-77
2022/12/28 07:33:40;;;;;;;;;0.00;0.00;;;;;0.19;83.80;99126.97;4931130;28;101528;-77
2022/12/28 07:36:10;;;;;;;;;1.00;0.00;;;;;0.21;83.17;99119.72;4927864;28;107932;-78
2022/12/28 07:38:37;;;;;;;;;0.00;0.00;;;;;0.25;83.42;99111.38;4912426;28;102657;-77
2022/12/28 07:41:16;;;;;;;;;0.00;0.00;;;;;0.30;83.07;99121.66;4911656;28;101560;-77
2022/12/28 07:43:43;;;;;;;;;0.00;0.00;;;;;0.34;83.43;99115.13;4928175;28;101822;-78
2022/12/28 07:46:13;;;;;;;;;0.50;0.00;;;;;0.36;83.10;99111.34;4920848;28;103363;-77
2022/12/28 07:48:42;;;;;;;;;0.25;0.00;;;;;0.43;83.25;99119.69;4928700;28;101826;-77
2022/12/28 07:51:15;;;;;;;;;0.00;0.00;;;;;0.47;83.16;99125.59;4921119;28;101491;-77
2022/12/28 07:53:44;;;;;;;;;0.00;0.00;;;;;0.50;83.45;99118.19;4918833;28;101847;-76
2022/12/28 07:56:12;;;;;;;;;0.00;0.00;;;;;0.55;83.14;99123.16;4924302;28;103233;-77
2022/12/28 07:58:39;;;;;;;;;0.00;0.00;;;;;0.48;83.09;99103.34;4916790;28;101841;-76
2022/12/28 08:01:11;;;;;;;;;0.00;0.00;;;;;0.62;82.72;99122.53;4926298;28;101586;-78
2022/12/28 08:03:41;;;;;;;;;0.00;0.00;;;;;0.65;82.83;99127.59;4918905;28;101557;-77
2022/12/28 08:06:11;;;;;;;;;0.00;0.00;;;;;0.69;82.47;99118.41;4916566;28;107904;-79
2022/12/28 08:08:41;;;;;;;;;0.00;0.00;;;;;0.52;82.25;99084.34;4930466;28;101691;-77
2022/12/28 08:11:10;;;;;;;;;0.50;0.50;;;;;0.75;82.51;99104.59;4911929;28;101528;-78
2022/12/28 08:13:39;;;;;;;;;0.00;0.00;;;;;0.85;82.57;99110.00;4925717;28;101599;-77
2022/12/28 08:16:08;;;;;;;;;0.00;0.00;;;;;0.92;81.66;99097.00;4915801;28;103324;-78
2022/12/28 08:18:35;;;;;;;;;0.00;0.00;;;;;0.99;81.88;99115.00;4922168;28;101646;-77
2022/12/28 08:21:13;;;;;;;;;1.00;0.00;;;;;1.07;81.73;99111.72;4929974;28;101589;-77
2022/12/28 08:23:41;;;;;;;;;0.00;0.00;;;;;1.15;81.87;99101.25;4930273;28;101887;-77
2022/12/28 08:26:16;;;;;;;;;1.00;1.00;;;;;1.22;81.00;99111.25;4910223;28;107637;-76
2022/12/28 08:28:45;;;;;;;;;0.00;0.00;;;;;1.29;80.50;99107.09;4925181;28;102745;-77
2022/12/28 08:31:15;;;;;;;;;0.00;0.00;;;;;1.29;79.91;99088.47;4923392;28;101806;-75
2022/12/28 08:33:43;;;;;;;;;0.00;0.00;;;;;1.47;79.41;99103.84;4929255;28;102043;-75
2022/12/28 08:36:10;;;;;;;;;0.00;0.00;;;;;1.53;78.25;99098.81;4914373;28;103527;-76
2022/12/28 08:38:39;;;;;;;;;0.75;0.00;;;;;1.31;79.17;99057.19;4917261;28;101747;-76
2022/12/28 08:41:09;;;;;;;;;0.00;0.00;;;;;1.69;78.68;99099.19;4925959;28;101433;-76
2022/12/28 08:43:36;;;;;;;;;0.00;0.00;;;;;1.75;78.50;99095.16;4916038;28;101761;-76
2022/12/28 08:46:12;;;;;;;;;0.00;0.00;;;;;1.82;78.40;99100.78;4930087;28;103366;-76
2022/12/28 08:48:39;;;;;;;;;0.00;0.00;;;;;1.88;78.57;99098.44;4931673;28;101684;-77
2022/12/28 08:51:09;;;;;;;;;1.00;0.00;;;;;1.97;78.57;99094.97;4929884;28;101349;-76
2022/12/28 08:53:37;;;;;;;;;0.00;0.00;;;;;2.04;78.38;99095.25;4931682;28;101538;-77
2022/12/28 08:56:13;;;;;;;;;1.00;0.00;;;;;2.09;77.35;99088.53;4920610;28;103519;-77
2022/12/28 08:58:42;;;;;;;;;1.00;0.00;;;;;2.18;76.25;99095.72;4912462;28;101572;-76
2022/12/28 09:01:14;;;;;;;;;0.00;0.00;;;;;2.26;76.76;99089.69;4919319;28;101671;-77
2022/12/28 09:03:45;;;;;;;;;0.00;0.00;;;;;2.33;77.30;99085.53;4924878;28;101824;-76
2022/12/28 09:06:15;;;;;;;;;0.00;0.00;;;;;2.40;76.30;99091.97;4921512;28;108132;-74
2022/12/28 09:08:42;;;;;;;;;1.00;0.00;;;;;2.44;76.66;99084.53;4911444;28;101730;-75
2022/12/28 09:11:28;;;;;;;;;0.00;0.00;;;;;2.51;75.78;99091.88;4931038;28;101904;-77
2022/12/28 09:13:55;;;;;;;;;0.00;0.00;;;;;2.46;75.89;99071.91;4927753;28;101875;-79
2022/12/28 09:16:25;;;;;;;;;1.00;1.00;;;;;2.60;76.61;99090.19;4917616;28;103512;-77
2022/12/28 09:18:58;;;;;;;;;1.75;1.25;;;;;2.66;75.66;99093.13;4930648;28;101880;-77
2022/12/28 09:21:27;;;;;;;;;1.00;0.50;;;;;2.75;75.44;99093.31;4930460;28;101421;-77
2022/12/28 09:23:54;;;;;;;;;2.00;1.00;;;;;2.78;74.54;99087.69;4931084;28;101625;-77
2022/12/28 09:26:26;;;;;;;;;1.75;1.00;;;;;2.87;74.89;99101.03;4922787;28;103067;-77
2022/12/28 09:28:56;;;;;;;;;2.00;1.75;;;;;2.90;75.11;99092.72;4930696;28;101993;-77
2022/12/28 09:31:25;;;;;;;;;2.00;1.00;;;;;2.96;75.13;99092.19;4919066;28;101341;-78
2022/12/28 09:34:00;;;;;;;;;1.00;0.00;;;;;3.02;74.74;99083.59;4930734;28;101671;-77
2022/12/28 09:36:47;;;;;;;;;1.50;1.00;;;;;3.02;73.30;99069.38;4924833;28;110798;-77
2022/12/28 09:39:17;;;;;;;;;1.75;1.75;;;;;3.12;74.23;99086.25;4915315;28;101833;-77
2022/12/28 09:41:48;;;;;;;;;1.00;0.00;;;;;3.18;74.05;99076.84;4915091;28;101422;-76
2022/12/28 09:44:26;;;;;;;;;2.00;2.00;;;;;3.18;73.84;99088.38;4905622;28;102604;-77
2022/12/28 09:46:57;;;;;;;;;1.00;1.00;;;;;3.21;74.03;99074.72;4931979;28;103678;-77
2022/12/28 09:49:54;;;;;;;;;2.00;1.00;;;;;3.28;73.69;99083.84;4911223;28;101846;-76
2022/12/28 09:52:36;;;;;;;;;2.00;1.00;;;;;3.25;73.75;99078.78;4897998;28;102188;-77
2022/12/28 09:55:12;;;;;;;;;1.75;1.75;;;;;3.26;73.52;99067.09;4916758;28;102415;-77
2022/12/28 09:57:44;;;;;;;;;0.00;0.00;;;;;3.31;73.86;99070.19;4928280;28;107905;-77
2022/12/28 10:00:18;;;;;;;;;1.00;1.00;;;;;3.35;72.71;99065.41;4929864;28;102247;-77
2022/12/28 10:02:50;;;;;;;;;1.50;1.00;;;;;3.26;72.87;99051.06;4913021;28;101902;-77
2022/12/28 10:05:20;;;;;;;;;1.50;1.25;;;;;3.38;72.65;99067.78;4929847;28;101898;-77
2022/12/28 10:07:47;;;;;;;;;1.75;1.75;;;;;3.40;72.92;99063.13;4919621;28;103467;-77
2022/12/28 10:10:21;;;;;;;;;1.00;1.00;;;;;3.38;72.54;99065.94;4915579;28;101918;-77
2022/12/28 10:12:49;;;;;;;;;1.00;1.00;;;;;3.47;72.27;99067.75;4898288;28;108651;-78
2022/12/28 10:15:16;;;;;;;;;1.00;1.00;;;;;3.50;72.00;99056.78;4914262;28;101937;-77
2022/12/28 10:17:44;;;;;;;;;1.25;0.00;;;;;3.58;71.79;99050.72;4929296;28;103318;-77
2022/12/28 10:20:19;;;;;;;;;0.00;0.00;;;;;3.64;71.99;99051.97;4932369;28;101450;-78
2022/12/28 10:22:55;;;;;;;;;0.25;0.00;;;;;3.67;71.59;99048.97;4913989;28;101739;-78
2022/12/28 10:25:25;;;;;;;;;0.00;0.00;;;;;3.67;71.48;99039.13;4903756;28;101917;-78
2022/12/28 10:27:53;;;;;;;;;0.00;0.00;;;;;3.68;70.24;99043.50;4929863;28;103900;-78
2022/12/28 10:30:28;;;;;;;;;1.00;0.00;;;;;3.71;69.75;99042.34;4923064;28;101617;-78
2022/12/28 10:32:57;;;;;;;;;1.00;0.00;;;;;3.73;71.02;99038.56;4919079;28;101654;-78
2022/12/28 10:35:47;;;;;;;;;0.00;0.00;;;;;3.75;71.03;99025.88;4922652;28;101786;-79
2022/12/28 10:38:25;;;;;;;;;1.00;0.00;;;;;3.76;70.64;99016.84;4907816;28;107731;-78
2022/12/28 10:41:14;;;;;;;;;0.75;0.00;;;;;3.76;70.40;99005.31;4924749;28;101493;-78
2022/12/28 10:43:52;;;;;;;;;1.00;0.00;;;;;3.80;70.07;98990.66;4925948;28;101715;-79
2022/12/28 10:46:50;;;;;;;;;1.00;0.25;;;;;3.80;70.06;98990.66;4907073;28;101791;-79
2022/12/28 10:49:19;;;;;;;;;0.00;0.00;;;;;3.81;68.51;98981.66;4910714;28;107973;-78
2022/12/28 10:52:17;;;;;;;;;0.00;0.00;;;;;3.69;68.97;98956.09;4929850;28;101805;-79
2022/12/28 10:54:45;;;;;;;;;1.00;0.00;;;;;3.90;69.00;98976.25;4906258;28;101769;-78
2022/12/28 10:57:32;;;;;;;;;0.00;0.00;;;;;3.94;69.05;98974.09;4913154;28;101669;-79
2022/12/28 11:00:22;;;;;;;;;0.00;0.00;;;;;3.97;68.36;98963.94;4914361;28;103657;-79
2022/12/28 11:02:49;;;;;;;;;1.25;0.50;;;;;4.00;68.27;98961.00;4923903;28;101506;-78
2022/12/28 11:05:21;;;;;;;;;0.75;0.00;;;;;4.04;68.07;98959.69;4919466;28;101971;-78
2022/12/28 11:08:02;;;;;;;;;0.00;0.00;;;;;4.03;68.17;98943.78;4916318;28;101937;-78
2022/12/28 11:10:31;;;;;;;;;1.00;0.00;;;;;4.08;67.94;98946.84;4916856;28;103537;-77
2022/12/28 11:12:59;;;;;;;;;0.00;0.00;;;;;4.17;67.11;98939.72;4911782;28;101873;-78
2022/12/28 11:15:30;;;;;;;;;0.00;0.00;;;;;4.19;67.57;98937.75;4922552;28;101800;-78
2022/12/28 11:18:00;;;;;;;;;0.75;0.00;;;;;4.20;67.08;98934.91;4912386;28;101575;-77
2022/12/28 11:20:41;;;;;;;;;0.50;0.00;;;;;4.25;67.74;98916.56;4926890;28;103309;-79
2022/12/28 11:23:13;;;;;;;;;0.00;0.00;;;;;4.24;67.36;98914.88;4920387;28;101825;-79
2022/12/28 11:25:40;;;;;;;;;0.00;0.00;;;;;4.34;67.64;98918.31;4924168;28;101779;-77
2022/12/28 11:28:18;;;;;;;;;0.00;0.00;;;;;4.42;66.82;98929.09;4923968;28;101953;-77
2022/12/28 11:30:49;;;;;;;;;0.00;0.00;;;;;4.49;66.86;98923.97;4915257;28;108152;-76
2022/12/28 11:33:39;;;;;;;;;0.00;0.00;;;;;4.57;66.35;98909.81;4926999;28;101715;-78
2022/12/28 11:36:25;;;;;;;;;0.00;0.00;;;;;4.72;65.47;98903.75;4914085;28;102344;-78
2022/12/28 11:38:55;;;;;;;;;0.00;0.00;;;;;4.89;66.07;98904.69;4905144;28;101791;-78
2022/12/28 11:41:27;;;;;;;;;0.00;0.00;;;;;5.03;64.11;98897.91;4926673;28;103485;-78
2022/12/28 11:44:03;;;;;;;;;1.00;0.00;;;;;5.19;64.25;98896.13;4926560;28;101860;-78
2022/12/28 11:46:30;;;;;;;;;0.00;0.00;;;;;5.34;62.47;98877.63;4929274;28;101961;-78
2022/12/28 11:48:58;;;;;;;;;0.00;0.00;;;;;5.28;62.18;98840.72;4906720;28;102685;-77
2022/12/28 11:51:33;;;;;;;;;0.00;0.00;;;;;5.74;62.46;98871.53;4923530;28;103306;-78
2022/12/28 11:54:03;;;;;;;;;0.75;0.00;;;;;5.89;60.34;98866.41;4905356;28;101691;-77
2022/12/28 11:56:45;;;;;;;;;1.00;0.00;;;;;6.01;60.07;98865.94;4918698;28;101999;-77
2022/12/28 11:59:25;;;;;;;;;0.00;0.00;;;;;6.16;60.01;98864.28;4926029;28;101529;-78
2022/12/28 12:02:18;;;;;;;;;0.00;0.00;;;;;6.38;59.48;98862.78;4926772;28;107347;-77
2022/12/28 12:04:45;;;;;;;;;0.50;0.00;;;;;6.60;59.79;98851.34;4908400;28;102043;-76
2022/12/28 12:07:18;;;;;;;;;2.00;0.00;;;;;6.79;58.51;98854.69;4923730;28;101969;-77
2022/12/28 12:09:48;;;;;;;;;0.00;0.00;;;;;6.82;56.58;98846.25;4916444;28;101769;-77
2022/12/28 12:12:14;;;;;;;;;0.25;0.00;;;;;6.90;57.92;98839.00;4913042;28;107748;-78
2022/12/28 12:14:53;;;;;;;;;0.00;0.00;;;;;6.95;58.46;98838.50;4925280;28;102630;-77
2022/12/28 12:17:44;;;;;;;;;0.00;0.00;;;;;7.03;57.19;98838.47;4926883;28;101850;-77
2022/12/28 12:20:39;;;;;;;;;0.00;0.00;;;;;7.04;56.23;98832.94;4913490;28;101631;-77
2022/12/28 12:23:40;;;;;;;;;0.00;0.00;;;;;7.22;57.40;98821.94;4907659;28;109136;-77
2022/12/28 12:26:57;;;;;;;;;0.00;0.00;;;;;7.33;57.76;98812.66;4913542;28;105213;-77